Ct Longford — 9HYM9 — position and weather

sailwx.info

Track history (hours):
 
Tides and Currents Weather Stations Pressure Air Temp Water Temp Dewpoint Dewpoint Depression Visibility Wind Speed Wind Dir Waves Ship Positions

Ct Longford

Last reported at 2015-Apr-16 22:13 UTC. Time now 2015-Apr-19 09:31 UTC.
Position N 14°04' W 060°41'.

Length 117 m; draft 7.3 m.

Type: Ship (hazmat cat A). MMSI: 249706000.

Date/timePositionNaut miles runAvg speedWind from/ knotsBaromVisibWave heightAir tempDewpointWater temp
2015-Apr-16 22:13N 14°04' W 060°41'5 7.6
2015-Apr-16 21:33N 14°06' W 060°45'9 9.5
2015-Apr-16 20:33N 14°12' W 060°53'10 9.9
2015-Apr-16 19:33N 14°19' W 060°60'1010.4
2015-Apr-16 18:33N 14°26' W 061°08'10 9.7
2015-Apr-16 17:33N 14°34' W 061°14'10 9.8
2015-Apr-16 16:33N 14°42' W 061°19'1110.4
2015-Apr-16 15:27N 14°52' W 061°26'  
2015-Apr-13 09:33N 14°52' W 061°44'1111.1
2015-Apr-13 08:33N 14°43' W 061°39'1111.5
2015-Apr-13 07:33N 14°32' W 061°34'1111.4
2015-Apr-13 06:33N 14°22' W 061°29'1111.2
2015-Apr-13 05:33N 14°12' W 061°24'1110.8
2015-Apr-13 04:32N 14°02' W 061°19'  
Track history (hours):
 
Tides and Currents Weather Stations Pressure Air Temp Water Temp Dewpoint Dewpoint Depression Visibility Wind Speed Wind Dir Waves Ship Positions

Ct Longford

Last reported at 2015-Apr-16 22:13 UTC. Time now 2015-Apr-19 09:31 UTC.
Position N 14°04' W 060°41'.

Length 117 m; draft 7.3 m.

Type: Ship (hazmat cat A). MMSI: 249706000.

Date/timePositionNaut miles runAvg speedWind from/ knotsBaromVisibWave heightAir tempDewpointWater temp
2015-Apr-16 22:13N 14°04' W 060°41'5 7.6
2015-Apr-16 21:33N 14°06' W 060°45'9 9.5
2015-Apr-16 20:33N 14°12' W 060°53'10 9.9
2015-Apr-16 19:33N 14°19' W 060°60'1010.4
2015-Apr-16 18:33N 14°26' W 061°08'10 9.7
2015-Apr-16 17:33N 14°34' W 061°14'10 9.8
2015-Apr-16 16:33N 14°42' W 061°19'1110.4
2015-Apr-16 15:27N 14°52' W 061°26'  
2015-Apr-13 09:33N 14°52' W 061°44'1111.1
2015-Apr-13 08:33N 14°43' W 061°39'1111.5
2015-Apr-13 07:33N 14°32' W 061°34'1111.4
2015-Apr-13 06:33N 14°22' W 061°29'1111.2
2015-Apr-13 05:33N 14°12' W 061°24'1110.8
2015-Apr-13 04:32N 14°02' W 061°19'  

Dump ship's entire track history